Aviation Digital Data Service (ADDS)

Output produced by METARs form (1459 UTC 22 April 2019)
found at http://www.aviationweather.gov/metar/data/
 
Forecast for: DNIL (ILORIN , NG)
Text: TAF DNIL 220930Z 2212/2318 22010KT 9999 SCT011
Forecast period: 1200 UTC 22 April 2019 to 1800 UTC 23 April 2019
Forecast type: FROM: standard forecast or significant change
Winds: from the SW (220 degrees) at 12 MPH (10 knots; 5.1 m/s)
Visibility: 6 or more miles 10+ km)
Ceiling: at least 12,000 feet AGL
Clouds: scattered clouds at 1100 feet AGL
Weather: no significant weather forecast for this period
Text: TEMPO 2214/2218 TS FEW021CB
Forecast period: 1400 to 1800 UTC 22 April 2019
Forecast type: TEMPORARY: The following changes expected for less than half the time period
Visibility: missing
Ceiling: at least 12,000 feet AGL
Clouds: few clouds at 2100 feet AGL
Weather: TS  (thunderstorm)
Text: PROB30
Forecast period: 1800 to 2200 UTC 22 April 2019
Forecast type: TEMPORARY: The following changes expected for less than half the time period
Winds: from the ENE (60 degrees) at 21 MPH (18 knots; 9.3 m/s)
gusting to 39 MPH (34 knots; 17.5 m/s)
Visibility: 3 miles (5 km)
Ceiling: 800 feet AGL
Clouds: broken clouds at 800 feet AGL
few clouds at 2000 feet AGL
Weather: -TSRA  (light rain associated with thunderstorm(s))